Accueil
Images satellite Prévisions 15 joursClimatMétéo marine Cyclones Foudre AéroportsFAQ Actualités A propos
Météo : Europe Afrique Amérique du Nord Amérique du Sud Asie Australie-Océanie Autres
Langues Contact

Bergerac, France

Roumanière

latitude: 44-49N, longitude: 000-31E, altitude: 51 m


METAR: LFBE 241430Z AUTO 29002KT 9999 SCT035 OVC056 19/15 Q1018
TAF: LFBE 241400Z 2415/2424 VRB03KT 9999 BKN035 PROB40 TEMPO 2416/2420 5000 SHRA BKN020TCU

Heure: 15:42 (14:42 UTC)

Observation

Le bulletin a été fait il y a 12 minutes, à 14:30 UTC
Vent 2 kt de ouest/nord-ouest
Température 19°C
Humidité 78%
Pression 1018 hPa
Visibilité 10 km ou plus
Nuages épars à une hauteur de 3500 ft
Ciel couvert à une hauteur de 5600 ft

Changer d'unités

Prévision

Le bulletin a été fait il y a 42 minutes, à 14:00 UTC
Prévision valable du 24 à 15 UTC au 24 à 24 UTC
Vent 3 kt de direction variable
Visibilité 10 km ou plus
Nuages fragmentés à une hauteur de 3500 ft
Probabilité 40% :
Temporairement
du 24 à 16 UTC au 24 à 20 UTC
Visibilité: 5000 m
Nuages fragmentés à une hauteur de 2000 ft, Cumulus congestus.
averses de pluie
Les informations qui figurent sur ce site font l'objet d'une clause de non-responsabilité
Météo : Europe Afrique Amérique du Nord Amérique du Sud Asie Australie-Océanie Autres
Images satellite Prévisions 15 joursClimatMétéo marine Cyclones Foudre AéroportsFAQ Langues Contact Actualités A propos